createdAt,value
2023-04-11T00:00:57.748Z,2.47
2023-04-11T00:03:25.459Z,3.33
2023-04-11T00:05:52.551Z,2.85
2023-04-11T00:08:19.626Z,2.95
2023-04-11T00:10:46.586Z,2.38
2023-04-11T00:13:13.649Z,2.75
2023-04-11T00:15:40.575Z,2.67
2023-04-11T00:18:08.045Z,2.50
2023-04-11T00:20:35.078Z,3.70
2023-04-11T00:23:02.070Z,3.03
2023-04-11T00:25:30.378Z,4.85
2023-04-11T00:27:57.415Z,2.47
2023-04-11T00:30:24.581Z,2.85
2023-04-11T00:32:51.545Z,3.17
2023-04-11T00:35:19.196Z,3.08
2023-04-11T00:37:47.082Z,2.95
2023-04-11T00:40:16.269Z,3.33
2023-04-11T00:42:43.594Z,2.47
2023-04-11T00:45:11.056Z,3.63
2023-04-11T00:47:38.652Z,3.97
2023-04-11T00:50:06.432Z,3.03
2023-04-11T00:52:34.376Z,2.88
2023-04-11T00:55:05.446Z,2.70
2023-04-11T00:57:32.654Z,2.83
2023-04-11T01:00:01.871Z,3.33
2023-04-11T01:02:29.928Z,2.13
2023-04-11T01:04:57.380Z,2.67
2023-04-11T01:07:25.393Z,2.78
2023-04-11T01:09:54.240Z,3.35
2023-04-11T01:12:21.965Z,3.25
2023-04-11T01:14:49.739Z,2.30
2023-04-11T01:17:17.113Z,2.97
2023-04-11T01:19:44.237Z,2.95
2023-04-11T01:22:14.764Z,3.17
2023-04-11T01:24:42.032Z,2.83
2023-04-11T01:27:09.398Z,2.05
2023-04-11T01:29:36.914Z,4.30
2023-04-11T01:32:03.975Z,2.97
2023-04-11T01:34:32.456Z,2.67
2023-04-11T01:36:59.498Z,3.10
2023-04-11T01:39:26.510Z,2.53
2023-04-11T01:41:56.977Z,2.95
2023-04-11T01:44:26.443Z,3.33
2023-04-11T01:46:53.503Z,2.55
2023-04-11T01:49:21.674Z,3.20
2023-04-11T01:51:48.638Z,2.70
2023-04-11T01:54:15.826Z,2.75
2023-04-11T01:56:43.127Z,2.78
2023-04-11T01:59:10.304Z,3.03
2023-04-11T02:01:37.304Z,2.55
2023-04-11T02:04:04.513Z,2.75
2023-04-11T02:06:32.329Z,2.05
2023-04-11T02:08:59.326Z,3.28
2023-04-11T02:11:26.324Z,2.72
2023-04-11T02:13:53.375Z,3.25
2023-04-11T02:16:20.910Z,2.35
2023-04-11T02:18:48.118Z,2.17
2023-04-11T02:21:15.128Z,3.40
2023-04-11T02:23:42.111Z,3.80
2023-04-11T02:26:09.372Z,2.78
2023-04-11T02:28:36.784Z,2.30
2023-04-11T02:31:04.052Z,3.05
2023-04-11T02:33:31.255Z,1.65
2023-04-11T02:35:58.495Z,1.90
2023-04-11T02:38:25.834Z,1.60
2023-04-11T02:40:52.738Z,1.90
2023-04-11T02:43:19.744Z,1.40
2023-04-11T02:45:47.084Z,1.70
2023-04-11T02:48:14.614Z,1.45
2023-04-11T02:50:44.866Z,1.17
2023-04-11T02:53:12.326Z,1.08
2023-04-11T02:55:46.958Z,1.35
2023-04-11T02:58:17.852Z,1.27
2023-04-11T03:00:46.785Z,1.40
2023-04-11T03:03:14.625Z,1.20
2023-04-11T03:05:47.088Z,1.17
2023-04-11T03:08:17.866Z,1.50
2023-04-11T03:10:50.742Z,1.67
2023-04-11T03:13:18.003Z,1.85
2023-04-11T03:15:45.265Z,0.98
2023-04-11T03:18:13.213Z,1.55
2023-04-11T03:20:43.612Z,2.25
2023-04-11T03:23:12.836Z,1.23
2023-04-11T03:25:40.662Z,1.60
2023-04-11T03:28:08.526Z,2.28
2023-04-11T03:30:35.610Z,1.58
2023-04-11T03:33:02.813Z,1.52
2023-04-11T03:35:31.260Z,1.38
2023-04-11T03:37:58.314Z,2.40
2023-04-11T03:40:26.170Z,1.40
2023-04-11T17:22:49.034Z,0.75
2023-04-11T17:25:16.939Z,1.10
2023-04-11T17:27:45.391Z,0.80
2023-04-11T17:30:12.644Z,0.80
2023-04-11T17:32:39.693Z,0.85
2023-04-11T17:35:07.230Z,0.95
2023-04-11T17:37:35.895Z,1.35
2023-04-11T17:40:12.979Z,0.90
2023-04-11T17:42:41.148Z,1.17
2023-04-11T17:45:17.210Z,0.80
2023-04-11T17:47:46.615Z,1.05
2023-04-11T17:50:14.794Z,0.80
2023-04-11T17:52:45.131Z,0.88
2023-04-11T17:55:15.605Z,1.00
2023-04-11T17:57:43.776Z,1.02
2023-04-11T18:00:24.212Z,0.85
2023-04-11T18:02:54.640Z,0.88
2023-04-11T18:05:25.205Z,1.10
2023-04-11T18:07:55.227Z,0.85
2023-04-11T18:10:23.037Z,0.90
2023-04-11T18:12:52.013Z,0.82
2023-04-11T18:15:22.664Z,2.35
2023-04-11T18:17:51.507Z,0.93
2023-04-11T18:20:18.845Z,0.70
2023-04-11T18:22:48.556Z,0.90
2023-04-11T18:25:15.817Z,0.90
2023-04-11T18:27:43.017Z,1.17
2023-04-11T18:30:12.247Z,1.10
2023-04-11T18:32:45.154Z,1.00
2023-04-11T18:35:15.298Z,1.10
2023-04-11T18:38:09.306Z,0.90
2023-04-11T18:40:37.644Z,1.00
2023-04-11T18:43:04.822Z,1.02
2023-04-11T18:45:35.138Z,0.90
2023-04-11T18:48:03.024Z,0.88
2023-04-11T18:50:30.796Z,1.20
2023-04-11T18:53:04.704Z,1.05
2023-04-11T18:55:33.162Z,2.25
2023-04-11T18:58:01.033Z,0.88
2023-04-11T19:00:30.380Z,1.00
2023-04-11T19:02:57.969Z,0.90
2023-04-11T19:05:25.746Z,1.20
2023-04-11T19:07:53.524Z,1.55
2023-04-11T19:10:21.342Z,0.85
2023-04-11T19:12:48.643Z,0.93
2023-04-11T19:15:15.994Z,1.02
2023-04-11T19:17:43.225Z,1.17
2023-04-11T19:20:13.261Z,1.15
2023-04-11T19:22:41.236Z,1.00
2023-04-11T19:25:12.287Z,1.38
2023-04-11T19:27:44.006Z,1.52
2023-04-11T19:30:13.873Z,1.38
2023-04-11T19:32:43.631Z,1.52
2023-04-11T19:35:11.880Z,1.50
2023-04-11T19:37:41.915Z,1.13
2023-04-11T19:40:15.249Z,1.25
2023-04-11T19:42:43.237Z,0.90
2023-04-11T19:45:11.276Z,2.13
2023-04-11T19:47:41.789Z,1.33
2023-04-11T19:50:13.532Z,1.00
2023-04-11T19:52:42.148Z,1.50
2023-04-11T19:55:10.392Z,1.08
2023-04-11T19:57:39.496Z,1.13
2023-04-11T20:00:12.547Z,1.20
2023-04-11T20:02:44.674Z,1.08
2023-04-11T20:05:14.177Z,1.02
2023-04-11T20:07:44.562Z,1.17
2023-04-11T20:10:13.504Z,1.30
2023-04-11T20:12:41.220Z,1.50
2023-04-11T20:15:09.539Z,1.25
2023-04-11T20:17:36.936Z,1.00
2023-04-11T20:20:08.591Z,1.20
2023-04-11T20:25:07.548Z,1.10
2023-04-11T20:27:35.520Z,1.30
2023-04-11T20:30:07.075Z,1.20
2023-04-11T20:32:34.545Z,1.25
2023-04-11T20:35:03.459Z,1.10
2023-04-11T20:37:31.670Z,1.02
2023-04-11T20:39:59.073Z,1.40
2023-04-11T20:42:27.905Z,1.15
2023-04-11T20:45:06.349Z,1.02
2023-04-11T20:47:38.259Z,1.42
2023-04-11T20:50:07.453Z,1.48
2023-04-11T20:52:35.448Z,2.15
2023-04-11T20:55:03.907Z,1.08
2023-04-11T20:57:30.970Z,1.15
2023-04-11T20:59:59.454Z,1.00
2023-04-11T21:02:28.015Z,1.50
2023-04-11T21:04:56.916Z,0.88
2023-04-11T21:07:24.065Z,1.42
2023-04-11T21:09:51.265Z,1.83
2023-04-11T21:12:19.410Z,1.00
2023-04-11T21:14:46.398Z,1.10
2023-04-11T21:17:13.845Z,1.58
2023-04-11T21:19:41.212Z,0.90
2023-04-11T21:22:09.162Z,1.00
2023-04-11T21:24:36.268Z,1.40
2023-04-11T21:27:03.264Z,1.20
2023-04-11T21:29:30.436Z,1.00
2023-04-11T21:31:57.684Z,0.95
2023-04-11T21:34:24.995Z,1.02
2023-04-11T21:36:55.374Z,1.30
2023-04-11T21:39:22.606Z,1.40
2023-04-11T21:41:49.734Z,1.42
2023-04-11T21:44:16.792Z,1.38
2023-04-11T21:46:43.949Z,1.30
2023-04-11T21:49:11.124Z,1.33
2023-04-11T21:51:38.120Z,1.27
2023-04-11T21:54:06.528Z,1.23
2023-04-11T21:56:34.625Z,2.47
2023-04-11T21:59:01.647Z,1.33
2023-04-11T22:01:29.230Z,1.40
2023-04-11T22:03:59.266Z,1.98
2023-04-11T22:06:26.632Z,1.40
2023-04-11T22:08:54.851Z,1.00
2023-04-11T22:11:21.895Z,1.35
2023-04-11T22:13:48.784Z,1.20
2023-04-11T22:16:15.894Z,1.15
2023-04-11T22:18:49.067Z,0.95
2023-04-11T22:21:20.952Z,1.02
2023-04-11T22:26:17.642Z,1.00
2023-04-11T22:28:45.511Z,1.27
2023-04-11T22:31:13.679Z,1.10
2023-04-11T22:33:41.332Z,1.20
2023-04-11T22:36:12.530Z,1.48
2023-04-11T22:38:40.396Z,1.48
2023-04-11T22:41:13.941Z,1.25
2023-04-11T22:43:40.907Z,0.80
2023-04-11T22:46:09.113Z,1.83
2023-04-11T22:48:36.500Z,1.70
2023-04-11T22:51:05.994Z,0.90
2023-04-11T22:53:34.656Z,0.90
2023-04-11T22:56:02.068Z,0.90
2023-04-11T22:58:29.091Z,0.77
2023-04-11T23:00:56.079Z,1.10
2023-04-11T23:03:23.078Z,0.95
2023-04-11T23:05:50.076Z,1.00
2023-04-11T23:08:17.524Z,1.05
2023-04-11T23:10:44.435Z,1.13
2023-04-11T23:13:11.450Z,1.42
2023-04-11T23:15:39.333Z,1.08
2023-04-11T23:18:06.869Z,1.65
2023-04-11T23:20:37.172Z,1.05
2023-04-11T23:23:04.210Z,1.23
2023-04-11T23:25:31.270Z,0.90
2023-04-11T23:27:58.201Z,1.08
2023-04-11T23:30:25.286Z,1.33
2023-04-11T23:32:53.399Z,1.13
2023-04-11T23:35:21.020Z,0.82
2023-04-11T23:37:47.935Z,1.15
2023-04-11T23:40:15.070Z,0.75
2023-04-11T23:42:42.127Z,1.00
2023-04-11T23:45:10.750Z,0.93
2023-04-11T23:47:37.980Z,0.90
2023-04-11T23:50:05.288Z,1.33
2023-04-11T23:52:32.334Z,0.80
2023-04-11T23:54:59.479Z,0.90
2023-04-11T23:57:26.464Z,1.05
2023-04-11T23:59:53.692Z,0.93
